Time;durP1;ratioP1;P1;durP2;ratioP2;P2;SDS_P1;SDS_P2;PMS_P1;PMS_P2;Temp;Humidity;BMP_temperature;BMP_pressure;BME280_temperature;BME280_humidity;BME280_pressure;Samples;Min_cycle;Max_cycle;Signal;HPM_P1;HPM_P2
2023/01/22 00:01:59;;;;;;;2.30;2.20;;;;;;;0.66;85.58;95817.03;4353274;32;20185;-61
2023/01/22 00:04:24;;;;;;;3.20;3.03;;;;;;;0.59;86.57;95811.91;4340810;32;20199;-61
2023/01/22 00:06:50;;;;;;;3.63;2.60;;;;;;;0.42;87.35;95816.09;4332768;32;20184;-61
2023/01/22 00:09:15;;;;;;;4.17;3.07;;;;;;;0.68;86.80;95815.00;4329305;32;20220;-60
2023/01/22 00:11:41;;;;;;;2.53;1.57;;;;;;;0.88;85.84;95812.94;4337446;32;20181;-61
2023/01/22 00:14:06;;;;;;;2.37;2.27;;;;;;;0.84;85.97;95819.63;4339643;32;20283;-61
2023/01/22 00:16:32;;;;;;;2.20;2.10;;;;;;;0.76;85.67;95809.50;4339474;32;20193;-61
2023/01/22 00:18:57;;;;;;;2.83;2.73;;;;;;;0.54;86.54;95814.38;4328176;32;20241;-62
2023/01/22 00:21:23;;;;;;;3.30;3.20;;;;;;;0.52;86.77;95816.37;4315752;33;20276;-61
2023/01/22 00:23:48;;;;;;;2.50;2.40;;;;;;;0.75;86.15;95809.72;4333489;32;20190;-61
2023/01/22 00:26:16;;;;;;;2.73;2.53;;;;;;;0.45;87.14;95812.25;4317367;33;20190;-61
2023/01/22 00:28:44;;;;;;;2.58;2.12;;;;;;;0.31;87.91;95809.00;4342439;32;20209;-61
2023/01/22 00:31:10;;;;;;;3.75;2.58;;;;;;;0.15;88.86;95812.16;4320822;32;20190;-61
2023/01/22 00:33:37;;;;;;;1.95;1.85;;;;;;;0.17;88.54;95825.78;4328724;33;20244;-61
2023/01/22 00:36:08;;;;;;;2.70;2.50;;;;;;;0.25;88.50;95820.28;4332922;33;20182;-61
2023/01/22 00:38:34;;;;;;;1.27;1.27;;;;;;;0.53;87.67;95817.97;4328296;32;20182;-64
2023/01/22 00:41:01;;;;;;;2.33;2.22;;;;;;;0.62;87.20;95811.44;4332042;33;20192;-61
2023/01/22 00:43:26;;;;;;;1.90;1.65;;;;;;;0.39;88.01;95816.53;4336142;32;20189;-61
2023/01/22 00:45:52;;;;;;;2.67;2.47;;;;;;;0.40;87.65;95812.12;4344776;32;20181;-61
2023/01/22 00:48:17;;;;;;;2.20;2.10;;;;;;;0.58;87.33;95810.31;4341742;32;20181;-61
2023/01/22 00:50:42;;;;;;;3.93;3.70;;;;;;;0.45;87.11;95815.66;4331166;32;20185;-61
2023/01/22 00:53:08;;;;;;;0.97;0.97;;;;;;;0.68;87.02;95810.56;4317814;32;20265;-61
2023/01/22 00:55:33;;;;;;;1.47;1.47;;;;;;;0.58;87.08;95815.53;4330386;32;20186;-66
2023/01/22 00:57:58;;;;;;;3.83;3.47;;;;;;;0.61;86.92;95815.09;4342346;32;20189;-61
2023/01/22 01:00:24;;;;;;;1.70;1.60;;;;;;;0.28;87.83;95815.44;4328564;32;20178;-61
2023/01/22 01:05:33;;;;;;;1.92;1.92;;;;;;;0.54;87.23;95808.34;4330324;33;20196;-65
2023/01/22 01:07:58;;;;;;;2.50;2.40;;;;;;;0.60;87.42;95808.28;4334617;32;20198;-61
2023/01/22 01:10:24;;;;;;;1.80;1.70;;;;;;;0.59;87.42;95817.13;4329113;32;20200;-61
2023/01/22 01:12:49;;;;;;;1.37;1.37;;;;;;;0.33;87.61;95814.78;4333279;32;20186;-61
2023/01/22 01:15:14;;;;;;;2.53;2.30;;;;;;;0.61;87.20;95809.87;4317407;32;20185;-61
2023/01/22 01:17:41;;;;;;;1.87;1.77;;;;;;;0.46;87.03;95812.03;4341795;32;20181;-61
2023/01/22 01:20:07;;;;;;;2.65;2.53;;;;;;;0.71;86.41;95811.94;4336447;32;20185;-61
2023/01/22 01:22:32;;;;;;;2.77;2.60;;;;;;;0.78;86.50;95817.09;4333516;32;20232;-61
2023/01/22 01:24:58;;;;;;;2.83;2.63;;;;;;;0.73;86.14;95819.56;4336617;32;20305;-61
2023/01/22 01:27:23;;;;;;;2.33;2.23;;;;;;;0.84;86.29;95818.81;4351819;32;20252;-61
2023/01/22 01:29:48;;;;;;;2.33;2.17;;;;;;;0.58;86.75;95812.91;4341530;32;20197;-61
2023/01/22 01:32:13;;;;;;;3.53;3.33;;;;;;;0.48;87.37;95823.06;4327512;32;20264;-61
2023/01/22 01:34:39;;;;;;;3.40;3.03;;;;;;;0.62;87.43;95814.06;4339474;32;20222;-61
2023/01/22 01:37:04;;;;;;;2.30;2.23;;;;;;;0.49;87.30;95818.63;4344005;32;20208;-61
2023/01/22 01:39:29;;;;;;;2.97;2.77;;;;;;;0.53;87.49;95819.78;4343738;32;20209;-61
2023/01/22 01:41:55;;;;;;;2.30;2.10;;;;;;;0.64;87.39;95816.44;4341053;32;20347;-61
2023/01/22 01:44:22;;;;;;;1.77;1.77;;;;;;;0.58;87.07;95815.53;4343681;32;20197;-61
2023/01/22 01:47:04;;;;;;;3.70;3.08;;;;;;;0.57;87.21;95821.75;4335549;32;20181;-61
2023/01/22 01:49:51;;;;;;;1.23;1.23;;;;;;;0.60;87.22;95821.34;4329873;32;20196;-61
2023/01/22 01:52:17;;;;;;;2.78;2.65;;;;;;;0.63;87.33;95813.03;4320200;32;20348;-61
2023/01/22 01:54:49;;;;;;;3.80;3.55;;;;;;;0.57;87.23;95810.53;4329610;32;20181;-61
2023/01/22 01:57:26;;;;;;;4.62;3.03;;;;;;;0.71;87.73;95819.78;4321301;32;20200;-61
2023/01/22 01:59:54;;;;;;;2.50;2.40;;;;;;;0.49;87.86;95814.22;4342205;32;20196;-61
2023/01/22 02:02:19;;;;;;;1.92;1.83;;;;;;;0.30;88.84;95817.84;4328146;32;20232;-61
2023/01/22 02:04:45;;;;;;;2.23;2.17;;;;;;;0.38;89.03;95817.56;4321238;32;20235;-61
2023/01/22 02:07:11;;;;;;;2.30;2.25;;;;;;;0.43;89.00;95817.69;4343126;32;20186;-61
2023/01/22 02:09:36;;;;;;;2.03;1.93;;;;;;;0.56;88.30;95814.16;4333807;32;20213;-61
2023/01/22 02:12:02;;;;;;;3.07;2.87;;;;;;;0.57;89.03;95815.75;4344557;32;20186;-61
2023/01/22 02:14:33;;;;;;;2.60;2.50;;;;;;;0.34;89.57;95811.16;4342458;32;20184;-61
2023/01/22 02:17:01;;;;;;;3.75;3.55;;;;;;;0.26;90.43;95817.47;4329432;32;20191;-61
2023/01/22 02:19:26;;;;;;;3.00;2.85;;;;;;;0.26;90.60;95811.44;4342322;32;20229;-62
2023/01/22 02:21:52;;;;;;;2.73;2.53;;;;;;;0.51;89.89;95814.78;4342116;32;20193;-61
2023/01/22 02:24:17;;;;;;;3.00;2.87;;;;;;;0.75;89.06;95817.53;4342179;32;20228;-61
2023/01/22 02:26:44;;;;;;;2.73;2.57;;;;;;;0.62;88.95;95818.50;4333103;32;20219;-61
2023/01/22 02:29:12;;;;;;;2.10;2.00;;;;;;;0.67;88.87;95816.81;4339818;32;20200;-61
2023/01/22 02:31:39;;;;;;;2.08;2.08;;;;;;;0.50;89.24;95813.19;4343423;32;20221;-61
2023/01/22 02:34:05;;;;;;;2.80;2.70;;;;;;;0.46;89.72;95814.63;4330721;32;20195;-61
2023/01/22 02:36:32;;;;;;;2.22;2.12;;;;;;;0.62;89.12;95813.28;4345765;32;20189;-61
2023/01/22 02:38:58;;;;;;;3.53;2.75;;;;;;;0.43;90.03;95816.87;4345300;32;20364;-61
2023/01/22 02:41:24;;;;;;;4.53;2.57;;;;;;;0.54;89.82;95819.59;4330664;32;20248;-61
2023/01/22 02:43:50;;;;;;;5.05;2.80;;;;;;;0.43;90.46;95816.87;4343721;32;20236;-61
2023/01/22 02:46:16;;;;;;;2.23;2.13;;;;;;;0.35;89.96;95820.59;4327576;32;20273;-61
2023/01/22 02:48:41;;;;;;;3.27;3.07;;;;;;;0.49;90.07;95816.81;4334285;32;20204;-61
2023/01/22 02:51:06;;;;;;;2.57;2.43;;;;;;;0.61;89.18;95824.75;4335628;32;20225;-61
2023/01/22 02:53:32;;;;;;;2.30;2.13;;;;;;;0.74;88.86;95821.16;4349134;32;20177;-61
2023/01/22 02:55:57;;;;;;;2.57;2.37;;;;;;;0.64;88.59;95824.28;4344129;32;20196;-63
2023/01/22 02:58:23;;;;;;;5.90;2.83;;;;;;;0.67;88.31;95819.41;4344131;32;20281;-60
2023/01/22 03:00:48;;;;;;;2.37;2.17;;;;;;;0.91;87.60;95814.31;4330298;32;20204;-60
2023/01/22 03:03:17;;;;;;;4.00;3.50;;;;;;;0.78;88.16;95817.91;4342241;32;20174;-61
2023/01/22 03:05:51;;;;;;;4.53;2.08;;;;;;;0.55;88.25;95812.56;4328378;32;20177;-61
2023/01/22 03:08:18;;;;;;;2.80;2.67;;;;;;;0.65;88.61;95812.81;4340438;32;20182;-60
2023/01/22 03:10:44;;;;;;;2.78;2.67;;;;;;;0.80;88.21;95812.47;4329936;32;20186;-61
2023/01/22 03:21:21;;;;;;;1.80;1.80;;;;;;;0.62;87.49;95821.12;4339981;32;20261;-61
2023/01/22 03:23:49;;;;;;;2.57;2.07;;;;;;;0.63;87.49;95814.84;4339137;32;20174;-61
2023/01/22 03:26:15;;;;;;;2.95;2.85;;;;;;;0.69;87.40;95820.00;4344322;32;20315;-61
2023/01/22 03:28:41;;;;;;;3.55;3.35;;;;;;;0.76;86.61;95822.53;4330544;32;20239;-61
2023/01/22 03:31:07;;;;;;;2.77;2.57;;;;;;;0.76;86.68;95816.53;4348679;32;20200;-60
2023/01/22 03:33:34;;;;;;;2.85;2.65;;;;;;;0.97;86.18;95821.28;4349260;32;20199;-60
2023/01/22 03:36:05;;;;;;;2.78;2.58;;;;;;;0.88;86.29;95822.59;4348305;32;20197;-60
2023/01/22 03:38:31;;;;;;;3.30;2.60;;;;;;;0.97;85.84;95818.66;4331984;32;20207;-61
2023/01/22 03:41:07;;;;;;;2.23;2.13;;;;;;;0.72;86.40;95818.78;4339092;32;20205;-61
2023/01/22 03:43:34;;;;;;;1.87;1.80;;;;;;;0.72;87.27;95823.19;4337553;32;20181;-61
2023/01/22 03:46:04;;;;;;;2.10;2.00;;;;;;;0.96;86.92;95817.06;4352885;32;20221;-60
2023/01/22 03:48:30;;;;;;;2.97;2.47;;;;;;;1.11;85.65;95817.47;4328913;32;20280;-61
2023/01/22 03:50:55;;;;;;;1.67;1.67;;;;;;;0.79;86.67;95823.91;4341302;32;20185;-60
2023/01/22 03:53:20;;;;;;;2.90;2.80;;;;;;;1.00;86.40;95834.69;4341071;32;20189;-60
2023/01/22 03:55:55;;;;;;;4.47;3.60;;;;;;;0.74;86.70;95831.59;4326801;32;20200;-60
2023/01/22 03:58:21;;;;;;;1.70;1.60;;;;;;;0.82;87.06;95837.34;4324977;32;20211;-60
2023/01/22 04:00:47;;;;;;;3.03;2.93;;;;;;;0.79;87.12;95831.75;4343776;32;20181;-60
2023/01/22 04:03:12;;;;;;;2.00;1.92;;;;;;;0.85;86.70;95833.47;4329650;32;20224;-60
2023/01/22 04:05:37;;;;;;;2.60;2.50;;;;;;;0.87;86.76;95844.50;4324773;32;20221;-61
2023/01/22 04:08:03;;;;;;;3.13;2.90;;;;;;;0.86;87.39;95838.47;4342782;32;20200;-61
2023/01/22 04:10:28;;;;;;;2.67;2.57;;;;;;;0.88;87.45;95846.09;4327279;32;20185;-61
2023/01/22 04:12:53;;;;;;;2.90;2.70;;;;;;;1.03;86.91;95841.31;4343718;32;20256;-61
2023/01/22 04:15:19;;;;;;;4.90;4.13;;;;;;;0.71;87.93;95845.09;4329659;32;20190;-60
2023/01/22 04:17:44;;;;;;;1.80;1.70;;;;;;;0.49;88.61;95842.91;4327720;32;20189;-60
2023/01/22 04:20:10;;;;;;;2.70;2.50;;;;;;;0.55;88.82;95847.28;4340586;32;20208;-60
2023/01/22 04:22:35;;;;;;;2.77;2.67;;;;;;;0.82;88.15;95850.41;4329889;32;20239;-60
2023/01/22 04:25:01;;;;;;;2.50;2.40;;;;;;;0.87;87.02;95842.69;4331571;32;20181;-60
2023/01/22 04:27:26;;;;;;;2.03;1.93;;;;;;;0.85;87.81;95851.75;4329856;32;20189;-60
2023/01/22 04:29:51;;;;;;;2.40;2.20;;;;;;;0.81;88.19;95851.41;4328479;32;20200;-60
2023/01/22 04:32:17;;;;;;;3.17;2.97;;;;;;;0.91;87.50;95851.69;4350709;32;20240;-60
2023/01/22 04:34:43;;;;;;;2.30;2.10;;;;;;;0.80;87.68;95849.00;4338364;32;20283;-60
2023/01/22 04:37:08;;;;;;;1.73;1.73;;;;;;;0.57;88.56;95855.69;4336440;32;20262;-60
2023/01/22 04:39:33;;;;;;;3.47;3.17;;;;;;;0.79;88.88;95852.66;4344309;32;20219;-66
2023/01/22 04:41:59;;;;;;;3.07;2.97;;;;;;;0.56;89.62;95861.91;4335901;32;20194;-60
2023/01/22 04:44:24;;;;;;;2.17;2.07;;;;;;;0.59;89.58;95851.06;4329795;32;20196;-60
2023/01/22 04:46:49;;;;;;;3.07;1.87;;;;;;;0.88;88.72;95856.53;4342953;32;20257;-60
2023/01/22 04:49:14;;;;;;;3.07;2.23;;;;;;;1.10;87.22;95860.28;4344190;32;20220;-60
2023/01/22 04:51:40;;;;;;;3.00;2.80;;;;;;;1.19;86.02;95861.59;4340410;32;20204;-60
2023/01/22 04:54:05;;;;;;;3.20;3.03;;;;;;;1.09;86.63;95865.72;4326441;32;20204;-60
2023/01/22 04:56:30;;;;;;;3.87;3.57;;;;;;;1.11;86.52;95861.87;4341689;32;20197;-60
2023/01/22 04:58:56;;;;;;;2.93;1.87;;;;;;;1.11;85.65;95866.31;4325975;32;20231;-60
2023/01/22 05:01:21;;;;;;;3.30;3.10;;;;;;;1.22;86.00;95871.59;4334791;32;20253;-60
2023/01/22 05:03:46;;;;;;;2.83;2.73;;;;;;;1.20;85.75;95875.44;4327828;32;20328;-60
2023/01/22 05:06:11;;;;;;;3.10;3.00;;;;;;;1.21;85.75;95867.38;4349449;32;20181;-60
2023/01/22 05:08:37;;;;;;;5.13;3.43;;;;;;;1.23;85.85;95870.59;4329089;32;20287;-60
2023/01/22 05:11:02;;;;;;;2.00;1.90;;;;;;;1.04;86.18;95877.63;4333820;32;20204;-60
2023/01/22 05:13:28;;;;;;;1.30;1.30;;;;;;;0.99;86.94;95868.88;4332707;32;20238;-60
2023/01/22 05:15:54;;;;;;;4.63;2.97;;;;;;;1.03;86.71;95876.06;4331524;32;20314;-60
2023/01/22 05:18:19;;;;;;;2.07;1.97;;;;;;;1.21;85.71;95875.22;4348324;32;20211;-60
2023/01/22 05:20:44;;;;;;;1.97;1.87;;;;;;;0.82;87.76;95881.72;4348698;32;20233;-60
2023/01/22 05:23:10;;;;;;;2.33;2.23;;;;;;;0.82;88.46;95880.94;4345385;32;20194;-60
2023/01/22 05:25:35;;;;;;;3.03;2.83;;;;;;;0.87;88.13;95881.06;4328408;32;20185;-60
2023/01/22 05:28:00;;;;;;;1.67;1.60;;;;;;;0.85;87.16;95873.44;4347433;32;20229;-60
2023/01/22 05:30:26;;;;;;;2.67;2.57;;;;;;;0.81;86.30;95876.72;4344161;32;20229;-60
2023/01/22 05:32:55;;;;;;;1.77;1.77;;;;;;;0.97;85.73;95883.97;4350061;32;20182;-60
2023/01/22 05:35:21;;;;;;;1.73;1.73;;;;;;;1.14;85.13;95895.41;4328298;32;20215;-60
2023/01/22 05:37:46;;;;;;;3.83;3.50;;;;;;;0.92;85.33;95886.44;4329211;32;20182;-60
2023/01/22 05:40:12;;;;;;;1.50;1.47;;;;;;;0.96;85.64;95884.97;4344343;32;20182;-60
2023/01/22 05:42:38;;;;;;;2.50;2.40;;;;;;;0.83;86.20;95892.97;4323170;32;20260;-60
2023/01/22 05:45:04;;;;;;;2.80;2.60;;;;;;;0.86;86.49;95897.72;4342581;32;20228;-60
2023/01/22 05:47:29;;;;;;;2.53;2.33;;;;;;;0.72;87.16;95893.69;4334352;32;20198;-60
2023/01/22 05:49:54;;;;;;;2.97;2.83;;;;;;;0.77;86.63;95901.66;4333955;32;20200;-60
2023/01/22 05:52:19;;;;;;;2.80;2.63;;;;;;;0.63;86.26;95904.41;4331988;32;20185;-60
2023/01/22 05:54:46;;;;;;;5.13;2.80;;;;;;;0.92;85.80;95900.28;4338754;32;20185;-60
2023/01/22 05:57:12;;;;;;;1.30;1.25;;;;;;;0.97;85.38;95897.81;4331273;32;20190;-60
2023/01/22 05:59:37;;;;;;;2.63;2.53;;;;;;;1.10;85.08;95902.06;4344968;32;20243;-60
2023/01/22 06:02:03;;;;;;;3.53;3.33;;;;;;;0.83;85.59;95906.78;4340597;32;20178;-61
2023/01/22 06:04:28;;;;;;;3.20;1.97;;;;;;;0.64;86.69;95911.22;4355548;32;20174;-61
2023/01/22 06:06:54;;;;;;;3.00;2.70;;;;;;;0.64;86.49;95913.03;4329932;32;20264;-60
2023/01/22 06:09:19;;;;;;;2.07;2.00;;;;;;;0.73;86.42;95913.56;4331220;32;20188;-61
2023/01/22 06:11:44;;;;;;;1.80;1.80;;;;;;;0.82;86.36;95914.88;4348567;32;20201;-60
2023/01/22 06:14:10;;;;;;;1.30;1.23;;;;;;;0.93;85.81;95912.31;4340990;32;20194;-60
2023/01/22 06:16:35;;;;;;;2.77;2.67;;;;;;;0.67;86.21;95918.63;4337399;32;20204;-60
2023/01/22 06:19:00;;;;;;;3.53;2.83;;;;;;;0.56;86.78;95923.75;4345657;32;20186;-61
2023/01/22 06:21:26;;;;;;;2.17;2.07;;;;;;;0.92;85.83;95920.38;4330315;32;20189;-60
2023/01/22 06:23:51;;;;;;;2.17;2.07;;;;;;;0.76;85.35;95926.19;4335701;32;20190;-60
2023/01/22 06:26:16;;;;;;;2.70;2.60;;;;;;;0.75;85.68;95927.19;4331449;32;20245;-60
2023/01/22 06:28:42;;;;;;;2.17;2.07;;;;;;;0.50;86.29;95925.41;4332340;32;20177;-60
2023/01/22 06:31:07;;;;;;;3.80;1.43;;;;;;;0.45;86.94;95930.47;4346713;32;20225;-60
2023/01/22 06:33:34;;;;;;;2.73;1.83;;;;;;;0.36;87.43;95930.97;4329216;32;20174;-60
2023/01/22 06:36:00;;;;;;;1.42;1.42;;;;;;;0.47;87.06;95935.47;4342208;32;20193;-60
2023/01/22 06:38:25;;;;;;;2.17;2.03;;;;;;;0.43;86.81;95936.91;4333013;32;20223;-61
2023/01/22 06:40:55;;;;;;;3.07;2.87;;;;;;;0.54;86.85;95938.84;4333882;32;20189;-60
2023/01/22 06:43:21;;;;;;;4.57;2.67;;;;;;;0.74;86.10;95939.44;4339247;32;20237;-60
2023/01/22 06:45:46;;;;;;;2.03;1.93;;;;;;;0.57;86.43;95939.22;4336348;32;20189;-60
2023/01/22 06:48:12;;;;;;;1.93;1.80;;;;;;;0.59;86.09;95942.41;4340766;32;20297;-60
2023/01/22 06:50:37;;;;;;;2.57;2.47;;;;;;;0.85;85.29;95935.31;4331916;32;20256;-60
2023/01/22 06:53:02;;;;;;;4.00;2.40;;;;;;;0.69;85.39;95942.69;4334760;32;20170;-61
2023/01/22 06:55:28;;;;;;;2.53;2.43;;;;;;;1.00;84.42;95938.37;4338293;32;20208;-60
2023/01/22 06:57:54;;;;;;;1.93;1.93;;;;;;;1.00;84.12;95938.37;4332354;32;20253;-60
2023/01/22 07:00:19;;;;;;;2.03;1.93;;;;;;;1.10;83.68;95949.09;4340244;32;20193;-61
2023/01/22 07:02:45;;;;;;;4.00;3.80;;;;;;;1.30;82.19;95944.44;4328235;32;20285;-60
2023/01/22 07:05:10;;;;;;;2.70;2.50;;;;;;;1.47;81.43;95952.47;4344235;32;20205;-60
2023/01/22 07:07:35;;;;;;;2.10;2.00;;;;;;;1.45;81.56;95959.75;4328191;32;20189;-60
2023/01/22 07:10:01;;;;;;;1.67;1.67;;;;;;;1.29;82.11;95963.75;4335676;32;20178;-60
2023/01/22 07:12:26;;;;;;;1.80;1.63;;;;;;;1.13;82.78;95964.34;4326479;32;20197;-60
2023/01/22 07:14:51;;;;;;;1.43;1.43;;;;;;;1.22;82.76;95965.66;4336970;32;20177;-60
2023/01/22 07:17:16;;;;;;;1.60;1.50;;;;;;;1.07;83.01;95967.81;4342017;32;20193;-60
2023/01/22 07:19:42;;;;;;;2.03;2.03;;;;;;;1.12;82.69;95957.53;4344021;32;20193;-60
2023/01/22 07:22:07;;;;;;;3.10;3.00;;;;;;;1.17;82.50;95965.50;4347798;32;20224;-60
2023/01/22 07:24:33;;;;;;;3.17;2.97;;;;;;;1.24;82.64;95965.44;4336511;32;20178;-60
2023/01/22 07:27:00;;;;;;;5.97;4.07;;;;;;;0.69;84.58;95974.03;4327733;32;20181;-60
2023/01/22 07:29:26;;;;;;;1.80;1.80;;;;;;;0.85;85.30;95972.66;4339438;32;20252;-60
2023/01/22 07:31:51;;;;;;;2.53;2.43;;;;;;;0.73;85.41;95969.16;4328433;32;20196;-65
2023/01/22 07:34:16;;;;;;;3.23;2.93;;;;;;;0.82;85.42;95973.12;4332230;32;20188;-62
2023/01/22 07:36:41;;;;;;;2.53;2.33;;;;;;;0.91;85.19;95960.56;4341731;32;20199;-63
2023/01/22 07:39:07;;;;;;;5.17;3.50;;;;;;;1.03;84.99;95964.88;4329044;32;20186;-61
2023/01/22 07:41:32;;;;;;;3.53;3.23;;;;;;;1.25;83.67;95959.97;4328182;32;20181;-60
2023/01/22 07:43:59;;;;;;;3.03;2.40;;;;;;;1.29;82.82;95963.75;4342791;32;20185;-60
2023/01/22 07:46:25;;;;;;;2.33;2.22;;;;;;;1.06;83.82;95974.06;4341654;32;20272;-60
2023/01/22 07:48:50;;;;;;;3.05;2.95;;;;;;;1.21;83.30;95960.66;4331931;32;20253;-60
2023/01/22 07:51:16;;;;;;;5.40;4.60;;;;;;;1.52;82.06;95972.72;4331417;32;20205;-60
2023/01/22 07:53:42;;;;;;;3.47;3.17;;;;;;;1.25;82.72;95965.19;4340940;32;20193;-60
2023/01/22 07:56:07;;;;;;;2.80;2.70;;;;;;;0.90;84.51;95966.78;4347118;32;20192;-60
2023/01/22 07:58:32;;;;;;;2.93;2.50;;;;;;;0.77;84.97;95977.37;4347463;32;20178;-60
2023/01/22 08:00:58;;;;;;;2.50;2.40;;;;;;;0.76;85.05;95981.00;4339807;32;20182;-60
2023/01/22 08:03:23;;;;;;;2.47;2.37;;;;;;;0.74;85.24;95975.19;4339630;32;20273;-63
2023/01/22 08:05:48;;;;;;;3.40;3.20;;;;;;;0.80;85.12;95982.19;4345224;32;20189;-60
2023/01/22 08:08:17;;;;;;;2.90;2.70;;;;;;;1.02;84.61;95968.50;4330352;32;20189;-60
2023/01/22 08:10:43;;;;;;;2.55;2.35;;;;;;;0.88;84.72;95976.66;4332318;32;20237;-60
2023/01/22 08:13:09;;;;;;;3.83;3.53;;;;;;;0.98;84.76;95976.97;4326524;33;20240;-60
2023/01/22 08:15:35;;;;;;;2.23;2.13;;;;;;;0.94;84.43;95981.81;4340079;32;21044;-60
2023/01/22 08:18:00;;;;;;;3.20;2.93;;;;;;;1.11;83.66;95976.81;4342801;32;20197;-60
2023/01/22 08:20:26;;;;;;;4.13;3.90;;;;;;;1.07;84.12;95980.06;4343609;32;20178;-59
2023/01/22 08:22:57;;;;;;;2.07;1.97;;;;;;;0.90;84.79;95990.28;4342444;32;20203;-60
2023/01/22 08:25:22;;;;;;;3.60;2.40;;;;;;;1.13;84.72;95995.69;4324283;32;20186;-60
2023/01/22 08:27:47;;;;;;;5.13;4.63;;;;;;;1.02;84.30;95993.81;4341905;32;20239;-60
2023/01/22 08:30:14;;;;;;;3.40;3.20;;;;;;;0.98;83.95;95988.22;4341300;32;20232;-60
2023/01/22 08:32:40;;;;;;;2.30;2.20;;;;;;;0.98;84.22;95992.63;4341951;32;20225;-60
2023/01/22 08:35:07;;;;;;;3.55;3.35;;;;;;;0.83;84.47;96000.78;4342611;32;20200;-60
2023/01/22 08:37:32;;;;;;;3.20;3.08;;;;;;;1.07;83.22;96001.78;4331230;32;20195;-60
2023/01/22 08:39:57;;;;;;;3.30;3.13;;;;;;;1.24;82.86;95996.78;4342894;32;20181;-60
2023/01/22 08:42:23;;;;;;;3.63;3.37;;;;;;;1.10;83.44;95998.72;4328471;32;21750;-60
2023/01/22 08:44:48;;;;;;;3.80;3.60;;;;;;;1.23;82.86;95996.00;4332420;32;20225;-60
2023/01/22 08:47:13;;;;;;;2.30;2.20;;;;;;;1.19;83.21;96004.47;4329689;32;20189;-60
2023/01/22 08:49:39;;;;;;;3.27;3.10;;;;;;;1.11;83.82;96008.16;4345737;32;20186;-60
2023/01/22 08:52:04;;;;;;;1.70;1.60;;;;;;;1.10;84.45;96006.56;4331702;32;20210;-62
2023/01/22 08:54:29;;;;;;;2.93;2.83;;;;;;;1.15;83.96;96006.72;4339261;32;20213;-60
2023/01/22 08:56:55;;;;;;;4.67;4.27;;;;;;;1.17;84.38;96023.00;4329010;32;20208;-59
2023/01/22 08:59:54;;;;;;;3.50;2.10;;;;;;;1.14;84.38;96018.19;4331767;32;20193;-59
2023/01/22 09:02:19;;;;;;;2.73;2.63;;;;;;;5.81;100.00;95998.91;4342700;32;20215;-59
2023/01/22 09:04:45;;;;;;;3.60;3.30;;;;;;;7.62;100.00;96005.91;4335703;32;20266;-59
2023/01/22 09:07:10;;;;;;;3.17;2.97;;;;;;;8.10;100.00;96010.06;4331896;32;20194;-59
2023/01/22 09:09:35;;;;;;;3.17;2.90;;;;;;;9.00;90.04;96014.94;4342697;32;20181;-62
2023/01/22 09:12:01;;;;;;;3.07;2.93;;;;;;;10.06;74.98;96011.22;4345712;32;20186;-60
2023/01/22 09:14:26;;;;;;;3.47;3.27;;;;;;;10.74;63.45;96022.00;4328115;32;20182;-60
2023/01/22 09:16:52;;;;;;;4.60;2.60;;;;;;;11.06;58.16;96026.78;4325124;32;20178;-60
2023/01/22 09:19:18;;;;;;;3.67;3.40;;;;;;;11.06;55.69;96029.44;4326000;32;20201;-59
2023/01/22 09:21:43;;;;;;;3.63;3.43;;;;;;;11.13;54.43;96035.22;4328015;32;20186;-60
2023/01/22 09:24:08;;;;;;;3.00;2.90;;;;;;;11.11;53.76;96043.47;4333092;32;20304;-60
2023/01/22 09:26:36;;;;;;;3.20;3.00;;;;;;;11.24;52.65;96044.66;4313327;33;20194;-59
2023/01/22 09:29:04;;;;;;;4.40;4.03;;;;;;;11.42;52.13;96054.63;4341642;32;20189;-60
2023/01/22 09:31:36;;;;;;;3.50;3.20;;;;;;;11.30;51.49;96051.53;4346244;32;20185;-60
2023/01/22 09:34:16;;;;;;;3.90;3.60;;;;;;;11.35;51.28;96059.47;4346019;32;20215;-60
2023/01/22 09:36:42;;;;;;;3.90;3.63;;;;;;;11.03;51.15;96052.81;4317368;33;20201;-60
2023/01/22 09:39:08;;;;;;;4.20;3.83;;;;;;;10.98;50.96;96060.03;4334278;32;20180;-62
2023/01/22 09:41:37;;;;;;;4.93;4.47;;;;;;;10.90;50.46;96057.97;4334231;32;20193;-61
2023/01/22 09:44:08;;;;;;;3.97;3.67;;;;;;;10.83;51.34;96066.22;4342011;32;20181;-61
2023/01/22 09:46:44;;;;;;;3.20;3.10;;;;;;;10.62;51.72;96067.44;4331530;32;20185;-61
2023/01/22 09:49:23;;;;;;;3.83;3.53;;;;;;;10.69;50.96;96065.25;4345168;32;20188;-60
2023/01/22 09:51:58;;;;;;;3.83;3.53;;;;;;;10.62;50.89;96070.88;4328709;33;20228;-61
2023/01/22 09:54:24;;;;;;;4.23;3.93;;;;;;;10.58;50.90;96066.41;4328631;32;20239;-60
2023/01/22 09:56:52;;;;;;;5.07;3.90;;;;;;;10.57;50.76;96075.44;4328258;32;20269;-61
2023/01/22 09:59:22;;;;;;;3.63;3.33;;;;;;;10.35;50.94;96067.06;4330842;32;20182;-61
2023/01/22 10:01:55;;;;;;;4.77;4.23;;;;;;;10.38;51.04;96075.28;4344791;32;20192;-61
2023/01/22 10:04:37;;;;;;;4.77;4.47;;;;;;;7.41;53.60;96081.56;4344756;32;20216;-60
2023/01/22 10:07:09;;;;;;;4.63;4.23;;;;;;;6.21;58.76;96080.22;4331583;33;20193;-60
2023/01/22 10:09:40;;;;;;;3.00;2.83;;;;;;;4.65;65.02;96090.06;4336855;32;20366;-61
2023/01/22 10:12:12;;;;;;;3.50;3.20;;;;;;;3.69;70.14;96099.50;4337718;32;20270;-60
2023/01/22 10:14:41;;;;;;;4.30;4.10;;;;;;;3.13;71.92;96090.37;4324328;32;20320;-59
2023/01/22 10:17:22;;;;;;;3.43;3.13;;;;;;;2.49;76.56;96088.59;4333493;32;20397;-60
2023/01/22 10:19:54;;;;;;;3.10;3.00;;;;;;;2.73;76.74;96091.03;4335326;32;20319;-60
2023/01/22 10:22:22;;;;;;;3.63;3.37;;;;;;;3.01;74.51;96093.00;4319092;33;20320;-60
2023/01/22 10:24:48;;;;;;;2.77;2.57;;;;;;;3.11;74.68;96087.22;4322687;32;20288;-60
2023/01/22 10:27:17;;;;;;;4.00;3.70;;;;;;;2.62;76.36;96094.44;4318864;33;20282;-60
2023/01/22 10:29:54;;;;;;;4.23;3.97;;;;;;;2.93;75.04;96090.72;4333889;32;20181;-60
2023/01/22 10:32:23;;;;;;;2.87;2.77;;;;;;;2.69;76.65;96089.91;4320827;33;20309;-60
2023/01/22 10:35:10;;;;;;;4.13;3.90;;;;;;;3.00;75.78;96091.41;4319849;32;20305;-60
2023/01/22 10:37:51;;;;;;;3.20;3.00;;;;;;;2.60;75.75;96083.37;4351977;32;20333;-60
2023/01/22 10:40:29;;;;;;;3.37;3.17;;;;;;;2.69;75.95;96089.91;4330952;32;20395;-61
2023/01/22 10:43:15;;;;;;;4.70;4.17;;;;;;;2.87;75.64;96093.47;4340096;32;20353;-61
2023/01/22 10:45:58;;;;;;;3.07;2.90;;;;;;;3.03;75.06;96083.09;4315830;32;20270;-61
2023/01/22 10:48:24;;;;;;;3.60;3.30;;;;;;;2.92;75.37;96077.84;4312155;32;20277;-60
2023/01/22 10:51:11;;;;;;;3.50;3.30;;;;;;;2.53;75.86;96082.66;4344565;32;20311;-61
2023/01/22 10:53:38;;;;;;;3.37;3.13;;;;;;;2.75;77.17;96080.31;4335578;32;20287;-61
2023/01/22 10:56:09;;;;;;;2.70;2.60;;;;;;;3.32;72.82;96084.03;4344721;32;20323;-61
2023/01/22 10:58:37;;;;;;;2.83;2.60;;;;;;;3.09;73.59;96084.03;4326223;32;20278;-65
2023/01/22 11:01:24;;;;;;;2.77;2.67;;;;;;;3.27;72.79;96081.28;4344538;32;20266;-61
2023/01/22 11:03:49;;;;;;;3.93;3.73;;;;;;;3.48;71.82;96085.16;4337712;32;20341;-61
2023/01/22 11:06:21;;;;;;;3.20;3.00;;;;;;;3.28;72.02;96087.34;4343343;32;20273;-60
2023/01/22 11:09:48;;;;;;;3.77;2.30;;;;;;;2.87;73.07;96080.34;4315778;33;20201;-61
2023/01/22 11:12:25;;;;;;;2.77;2.67;;;;;;;3.24;72.15;96079.12;4285510;33;20293;-61
2023/01/22 11:15:35;;;;;;;2.33;1.80;;;;;;;2.93;73.35;96079.44;4337636;32;20289;-60
2023/01/22 11:18:03;;;;;;;3.50;3.27;;;;;;;2.91;74.14;96086.75;4305360;33;20279;-61
2023/01/22 11:20:40;;;;;;;4.10;3.80;;;;;;;2.69;75.24;96079.41;4306043;33;20275;-60
2023/01/22 11:23:22;;;;;;;4.07;3.77;;;;;;;2.74;76.33;96081.34;4308465;33;20286;-61
2023/01/22 11:26:27;;;;;;;2.33;2.23;;;;;;;2.75;76.28;96081.13;4315065;32;20275;-60
2023/01/22 11:29:07;;;;;;;2.40;2.30;;;;;;;2.76;75.32;96082.72;4296851;33;20371;-60
2023/01/22 11:31:50;;;;;;;3.33;3.07;;;;;;;2.39;76.22;96081.25;4322597;32;20278;-63
2023/01/22 11:34:25;;;;;;;3.40;3.10;;;;;;;2.13;77.65;96084.22;4317344;33;20279;-63
2023/01/22 11:37:02;;;;;;;2.70;2.60;;;;;;;2.00;77.08;96079.97;4319439;32;20316;-63
2023/01/22 11:39:49;;;;;;;3.17;2.87;;;;;;;1.98;77.37;96077.56;4323689;33;20463;-63
2023/01/22 11:42:29;;;;;;;2.80;2.47;;;;;;;2.08;78.99;96077.03;4282323;32;20290;-63
2023/01/22 11:45:14;;;;;;;2.57;2.47;;;;;;;2.41;76.02;96085.25;4310064;33;20372;-64
2023/01/22 11:48:28;;;;;;;1.60;1.60;;;;;;;2.68;75.47;96084.88;4301987;32;20269;-63
2023/01/22 11:51:26;;;;;;;2.70;2.60;;;;;;;2.22;75.36;96075.06;4262949;33;20284;-66
2023/01/22 11:54:20;;;;;;;2.93;2.73;;;;;;;2.24;75.35;96079.06;4314592;32;20355;-63
2023/01/22 11:57:04;;;;;;;2.57;2.40;;;;;;;2.02;75.90;96078.72;4296903;33;20283;-63
2023/01/22 11:59:55;;;;;;;3.53;3.33;;;;;;;2.05;77.20;96070.44;4332025;32;20278;-63